createdAt,value
2022-11-12T00:04:50.486Z,7.3
2022-11-12T00:09:55.039Z,7.2
2022-11-12T00:14:59.688Z,7.1
2022-11-12T00:20:03.131Z,7
2022-11-12T00:25:07.651Z,7
2022-11-12T00:30:12.318Z,7.1
2022-11-12T00:35:15.741Z,7.1
2022-11-12T00:40:20.538Z,7.1
2022-11-12T00:45:24.903Z,7.1
2022-11-12T00:50:28.387Z,7.2
2022-11-12T00:55:32.906Z,7.1
2022-11-12T01:00:37.647Z,7.1
2022-11-12T01:06:57.193Z,7.1
2022-11-12T01:12:01.644Z,7.1
2022-11-12T01:17:06.276Z,7
2022-11-12T01:22:10.691Z,7
2022-11-12T01:27:14.267Z,7
2022-11-12T01:32:18.902Z,6.8
2022-11-12T01:37:23.327Z,6.8
2022-11-12T01:42:26.882Z,6.8
2022-11-12T01:47:31.526Z,6.8
2022-11-12T01:52:35.941Z,6.8
2022-11-12T01:57:39.480Z,6.8
2022-11-12T02:02:44.117Z,6.8
2022-11-12T02:07:48.578Z,6.7
2022-11-12T02:12:52.137Z,6.7
2022-11-12T02:17:56.748Z,6.7
2022-11-12T02:23:01.170Z,6.7
2022-11-12T02:28:05.709Z,6.8
2022-11-12T02:33:09.403Z,6.8
2022-11-12T02:38:13.769Z,6.8
2022-11-12T02:43:18.356Z,6.8
2022-11-12T02:48:22.028Z,6.7
2022-11-12T02:53:26.429Z,6.7
2022-11-12T02:58:30.951Z,6.7
2022-11-12T03:03:34.611Z,6.6
2022-11-12T03:08:39.017Z,6.6
2022-11-12T03:13:43.557Z,6.5
2022-11-12T03:18:47.247Z,6.4
2022-11-12T03:23:51.643Z,6.4
2022-11-12T03:28:56.207Z,6.4
2022-11-12T03:34:00.848Z,6.3
2022-11-12T03:39:04.295Z,6.3
2022-11-12T03:44:07.853Z,6.2
2022-11-12T03:49:12.516Z,6.2
2022-11-12T03:54:16.906Z,6
2022-11-12T03:59:20.449Z,6
2022-11-12T04:04:25.101Z,6
2022-11-12T04:09:29.504Z,5.9
2022-11-12T04:14:34.057Z,6
2022-11-12T04:19:37.712Z,6
2022-11-12T04:24:42.168Z,6.1
2022-11-12T04:29:46.931Z,6.1
2022-11-12T04:34:50.461Z,6
2022-11-12T04:39:54.761Z,5.8
2022-11-12T04:44:59.271Z,5.8
2022-11-12T04:50:02.966Z,5.8
2022-11-12T04:55:07.372Z,5.7
2022-11-12T05:00:11.898Z,5.7
2022-11-12T05:05:15.583Z,5.6
2022-11-12T05:10:20.010Z,5.6
2022-11-12T05:15:24.515Z,5.5
2022-11-12T05:20:29.195Z,5.5
2022-11-12T05:25:32.651Z,5.4
2022-11-12T05:30:37.252Z,5.2
2022-11-12T05:35:41.828Z,5
2022-11-12T05:40:46.327Z,5.1
2022-11-12T05:45:50.859Z,5.2
2022-11-12T05:51:12.640Z,5.3
2022-11-12T05:55:58.970Z,5.4
2022-11-12T06:01:03.543Z,5.3
2022-11-12T06:06:08.127Z,5.3
2022-11-12T06:11:11.589Z,5.3
2022-11-12T06:16:16.133Z,5.3
2022-11-12T06:21:20.759Z,5.2
2022-11-12T06:26:25.189Z,5.3
2022-11-12T06:31:28.723Z,5.4
2022-11-12T06:36:33.403Z,5.3
2022-11-12T06:41:37.855Z,5.3
2022-11-12T06:46:41.335Z,5.4
2022-11-12T06:51:46.006Z,5.5
2022-11-12T06:56:50.406Z,5.5
2022-11-12T07:01:54.064Z,5.5
2022-11-12T07:06:58.653Z,5.5
2022-11-12T07:12:03.050Z,5.6
2022-11-12T07:17:06.641Z,5.7
2022-11-12T07:22:11.238Z,5.7
2022-11-12T07:27:15.644Z,5.6
2022-11-12T07:32:20.210Z,5.5
2022-11-12T07:37:23.890Z,5.7
2022-11-12T07:42:28.269Z,5.8
2022-11-12T07:47:32.829Z,5.9
2022-11-12T07:52:36.690Z,5.9
2022-11-12T07:57:39.892Z,6.1
2022-11-12T08:02:44.463Z,5.9
2022-11-12T08:07:49.236Z,6.2
2022-11-12T08:12:53.555Z,6.3
2022-11-12T08:17:57.081Z,6.5
2022-11-12T08:23:01.696Z,6.7
2022-11-12T08:28:06.121Z,6.7
2022-11-12T08:33:09.677Z,6.8
2022-11-12T08:38:14.366Z,6.8
2022-11-12T08:43:18.757Z,6.8
2022-11-12T08:48:22.317Z,7
2022-11-12T08:53:26.952Z,7.1
2022-11-12T08:58:31.447Z,7.3
2022-11-12T09:03:34.942Z,7.3
2022-11-12T09:08:39.598Z,7.4
2022-11-12T09:13:44.094Z,7.5
2022-11-12T09:18:48.519Z,7.7
2022-11-12T09:23:52.214Z,7.8
2022-11-12T09:28:56.590Z,7.8
2022-11-12T09:34:01.121Z,7.8
2022-11-12T09:39:04.828Z,8.1
2022-11-12T09:44:09.213Z,8
2022-11-12T09:49:13.737Z,8.1
2022-11-12T09:54:17.427Z,8.3
2022-11-12T09:59:21.860Z,8.1
2022-11-12T10:04:26.352Z,8.1
2022-11-12T10:09:30.026Z,8.5
2022-11-12T10:14:34.455Z,8.2
2022-11-12T10:19:38.999Z,8.6
2022-11-12T10:24:43.655Z,8.7
2022-11-12T10:29:47.091Z,8.7
2022-11-12T10:34:51.638Z,8.7
2022-11-12T10:39:56.251Z,8.8
2022-11-12T10:44:59.700Z,8.8
2022-11-12T10:50:04.247Z,8.8
2022-11-12T10:55:08.892Z,8.9
2022-11-12T11:00:12.326Z,9.1
2022-11-12T11:05:16.857Z,9
2022-11-12T11:10:21.510Z,9.4
2022-11-12T11:15:24.947Z,9.6
2022-11-12T11:20:29.491Z,9.6
2022-11-12T11:25:34.128Z,9.4
2022-11-12T11:30:38.575Z,9.7
2022-11-12T11:35:42.102Z,9.8
2022-11-12T11:40:46.764Z,10.2
2022-11-12T11:45:51.163Z,10
2022-11-12T11:50:54.727Z,10.1
2022-11-12T11:55:59.405Z,10
2022-11-12T12:01:03.802Z,10.3
2022-11-12T12:06:07.339Z,10.2
2022-11-12T12:11:12.031Z,10.2
2022-11-12T12:16:15.425Z,10.6
2022-11-12T12:21:19.946Z,10.2
2022-11-12T12:26:24.612Z,10.5
2022-11-12T12:31:28.059Z,10.2
2022-11-12T12:36:32.595Z,10.4
2022-11-12T12:41:37.267Z,10.3
2022-11-12T12:46:40.668Z,10.2
2022-11-12T12:51:45.178Z,10.6
2022-11-12T12:56:49.833Z,10.4
2022-11-12T13:01:53.259Z,10.4
2022-11-12T13:06:57.899Z,10.7
2022-11-12T13:12:02.473Z,10.8
2022-11-12T13:17:06.859Z,10.5
2022-11-12T13:22:10.420Z,10.7
2022-11-12T13:27:15.078Z,10.5
2022-11-12T13:32:19.507Z,10.5
2022-11-12T13:37:23.061Z,10.3
2022-11-12T13:42:27.724Z,10.5
2022-11-12T13:47:32.201Z,10.2
2022-11-12T13:52:35.654Z,10.2
2022-11-12T13:57:40.355Z,10
2022-11-12T14:02:44.730Z,10
2022-11-12T14:07:48.261Z,9.8
2022-11-12T14:12:52.950Z,9.8
2022-11-12T14:17:57.357Z,9.8
2022-11-12T14:23:01.897Z,9.7
2022-11-12T14:28:05.547Z,9.6
2022-11-12T14:33:10.004Z,9.4
2022-11-12T14:38:14.525Z,9.3
2022-11-12T14:43:19.711Z,9.3
2022-11-12T14:48:22.580Z,9.3
2022-11-12T14:53:27.528Z,9.2
2022-11-12T14:58:30.780Z,9.2
2022-11-12T15:03:35.216Z,9.2
2022-11-12T15:08:39.739Z,9.2
2022-11-12T15:13:43.399Z,9.1
2022-11-12T15:18:47.801Z,9.1
2022-11-12T15:23:52.361Z,9
2022-11-12T15:28:57.032Z,8.8
2022-11-12T15:34:00.463Z,8.8
2022-11-12T15:39:04.960Z,8.8
2022-11-12T15:44:09.629Z,8.7
2022-11-12T15:49:13.044Z,8.6
2022-11-12T15:54:17.600Z,8.5
2022-11-12T15:59:22.248Z,8.4
2022-11-12T16:04:25.689Z,8.2
2022-11-12T16:09:30.232Z,8.1
2022-11-12T16:14:34.840Z,8.1
2022-11-12T16:19:38.292Z,8
2022-11-12T16:24:42.838Z,8
2022-11-12T16:29:46.513Z,8
2022-11-12T16:34:50.928Z,7.8
2022-11-12T16:39:55.427Z,7.9
2022-11-12T16:44:59.108Z,7.9
2022-11-12T16:50:03.597Z,8
2022-11-12T16:55:08.089Z,8
2022-11-12T17:00:11.773Z,8
2022-11-12T17:05:16.154Z,8
2022-11-12T17:10:20.672Z,8
2022-11-12T17:15:25.336Z,8
2022-11-12T17:20:28.750Z,8
2022-11-12T17:25:33.339Z,8
2022-11-12T17:30:37.961Z,8.1
2022-11-12T17:35:41.365Z,8.1
2022-11-12T17:40:45.908Z,8
2022-11-12T17:45:50.583Z,8
2022-11-12T17:50:54.013Z,8
2022-11-12T17:55:58.557Z,8
2022-11-12T18:01:03.216Z,7.9
2022-11-12T18:06:06.631Z,7.8
2022-11-12T18:11:11.157Z,7.9
2022-11-12T18:16:15.830Z,7.9
2022-11-12T18:21:20.220Z,7.9
2022-11-12T18:26:23.820Z,8
2022-11-12T18:31:28.421Z,8
2022-11-12T18:36:32.858Z,8.1
2022-11-12T18:41:36.429Z,8.1
2022-11-12T18:46:41.051Z,8.1
2022-11-12T18:51:45.470Z,8
2022-11-12T18:56:49.033Z,8
2022-11-12T19:01:53.681Z,8.1
2022-11-12T19:06:58.145Z,8.1
2022-11-12T19:12:01.618Z,8.2
2022-11-12T19:17:06.301Z,8.3
2022-11-12T19:22:10.685Z,8.3
2022-11-12T19:27:15.236Z,8.2
2022-11-12T19:32:18.944Z,8.1
2022-11-12T19:37:38.561Z,8.1
2022-11-12T19:42:27.846Z,8.1
2022-11-12T19:47:31.532Z,8.1
2022-11-12T19:52:35.932Z,8.1
2022-11-12T19:57:40.438Z,8.1
2022-11-12T20:02:44.143Z,8
2022-11-12T20:07:48.564Z,8
2022-11-12T20:12:53.058Z,7.9
2022-11-12T20:17:56.763Z,7.9
2022-11-12T20:23:01.151Z,7.9
2022-11-12T20:28:05.681Z,7.9
2022-11-12T20:33:10.352Z,7.8
2022-11-12T20:38:13.788Z,7.8
2022-11-12T20:43:17.348Z,7.8
2022-11-12T20:48:21.982Z,7.8
2022-11-12T20:53:26.391Z,7.8
2022-11-12T20:58:30.280Z,7.7
2022-11-12T21:03:34.611Z,7.7
2022-11-12T21:08:39.022Z,7.7
2022-11-12T21:13:43.583Z,7.7
2022-11-12T21:18:47.201Z,7.7
2022-11-12T21:23:51.658Z,7.6
2022-11-12T21:28:56.229Z,7.5
2022-11-12T21:33:59.853Z,7.5
2022-11-12T21:39:04.261Z,7.5
2022-11-12T21:44:08.817Z,7.4
2022-11-12T21:49:12.492Z,7.4
2022-11-12T21:54:16.906Z,7.4
2022-11-12T21:59:21.389Z,7.3
2022-11-12T22:04:25.090Z,7.2
2022-11-12T22:09:29.502Z,7.3
2022-11-12T22:14:34.015Z,7.3
2022-11-12T22:19:38.713Z,7.1
2022-11-12T22:24:42.113Z,7.2
2022-11-12T22:29:46.682Z,7.2
2022-11-12T22:34:51.291Z,7.1
2022-11-12T22:39:55.865Z,7
2022-11-12T22:45:00.342Z,6.9
2022-11-12T22:50:05.032Z,6.9
2022-11-12T22:55:08.680Z,6.9
2022-11-12T23:00:13.222Z,6.8
2022-11-12T23:05:17.894Z,6.8
2022-11-12T23:10:21.282Z,6.7
2022-11-12T23:15:25.950Z,6.7
2022-11-12T23:20:30.502Z,6.8
2022-11-12T23:25:34.885Z,6.7
2022-11-12T23:30:38.477Z,6.7
2022-11-12T23:35:43.129Z,6.7
2022-11-12T23:40:47.521Z,6.7
2022-11-12T23:45:51.073Z,6.7
2022-11-12T23:50:55.739Z,6.7
2022-11-12T23:56:00.215Z,6.7
